Time;durP1;ratioP1;P1;durP2;ratioP2;P2;SDS_P1;SDS_P2;PMS_P1;PMS_P2;Temp;Humidity;BMP_temperature;BMP_pressure;BME280_temperature;BME280_humidity;BME280_pressure;Samples;Min_cycle;Max_cycle;Signal;HPM_P1;HPM_P2
2021/10/08 00:00:30;;;;;;;80.00;30.10;;;;;;;2.85;75.08;95768.31;1647057;86;21190;-58
2021/10/08 00:02:57;;;;;;;74.53;28.85;;;;;;;2.81;75.21;95768.27;1646312;85;20947;-57
2021/10/08 00:05:24;;;;;;;75.83;31.60;;;;;;;2.76;75.31;95769.17;1648757;86;21513;-58
2021/10/08 00:07:51;;;;;;;83.65;31.33;;;;;;;2.73;75.35;95773.99;1650835;86;21050;-58
2021/10/08 00:10:17;;;;;;;71.30;32.65;;;;;;;2.67;75.77;95772.19;1646469;87;21204;-58
2021/10/08 00:12:46;;;;;;;87.90;34.40;;;;;;;2.61;75.84;95774.23;1646560;86;21092;-58
2021/10/08 00:15:13;;;;;;;87.08;33.28;;;;;;;2.53;76.11;95777.45;1647072;86;21490;-58
2021/10/08 00:17:39;;;;;;;92.67;36.20;;;;;;;2.50;76.24;95772.00;1647067;86;21455;-58
2021/10/08 00:20:08;;;;;;;69.87;29.12;;;;;;;2.48;76.65;95779.14;1638610;85;20992;-58
2021/10/08 00:22:35;;;;;;;73.80;29.32;;;;;;;2.48;76.58;95777.02;1640242;87;21062;-58
2021/10/08 00:25:02;;;;;;;75.28;29.63;;;;;;;2.41;76.66;95773.64;1632545;86;21879;-58
2021/10/08 00:27:29;;;;;;;73.00;27.22;;;;;;;2.36;76.99;95775.30;1641205;86;20967;-58
2021/10/08 00:29:57;;;;;;;52.48;23.57;;;;;;;2.34;77.06;95786.34;1640936;85;20968;-58
2021/10/08 00:32:24;;;;;;;52.70;22.62;;;;;;;2.32;77.18;95784.58;1636793;86;21097;-58
2021/10/08 00:34:50;;;;;;;36.45;16.93;;;;;;;2.28;76.97;95785.88;1639186;87;21131;-58
2021/10/08 00:37:17;;;;;;;50.08;22.65;;;;;;;2.25;76.88;95784.47;1634426;86;21131;-58
2021/10/08 00:39:44;;;;;;;67.87;30.55;;;;;;;2.24;77.00;95783.70;1648817;85;21114;-59
2021/10/08 00:42:11;;;;;;;73.92;29.85;;;;;;;2.21;77.12;95784.45;1662086;85;21114;-58
2021/10/08 00:44:38;;;;;;;75.35;28.52;;;;;;;2.24;77.21;95792.41;1663434;85;20986;-59
2021/10/08 00:47:13;;;;;;;71.50;29.50;;;;;;;2.20;77.13;95789.67;1673346;85;21534;-58
2021/10/08 00:49:40;;;;;;;63.33;26.90;;;;;;;2.12;77.22;95786.64;1668918;85;21818;-57
2021/10/08 00:52:07;;;;;;;69.80;28.47;;;;;;;2.07;77.49;95788.88;1669902;85;20951;-58
2021/10/08 00:54:34;;;;;;;55.38;24.45;;;;;;;2.01;77.59;95794.44;1676042;85;21447;-58
2021/10/08 00:57:01;;;;;;;52.50;27.10;;;;;;;1.97;77.67;95787.59;1669091;85;21537;-58
2021/10/08 00:59:28;;;;;;;49.60;23.83;;;;;;;1.90;77.68;95789.42;1661922;85;20968;-58
2021/10/08 01:01:56;;;;;;;63.20;29.10;;;;;;;1.82;77.73;95794.55;1669329;84;21091;-58
2021/10/08 01:04:23;;;;;;;52.38;26.02;;;;;;;1.73;77.86;95788.59;1671248;85;21561;-57
2021/10/08 01:06:51;;;;;;;58.83;25.32;;;;;;;1.73;78.05;95798.88;1664293;85;21118;-59
2021/10/08 01:09:18;;;;;;;47.95;22.10;;;;;;;1.72;77.99;95792.45;1666643;85;21432;-58
2021/10/08 01:11:45;;;;;;;46.68;22.13;;;;;;;1.73;78.07;95798.08;1669945;85;21027;-59
2021/10/08 01:14:12;;;;;;;47.53;23.87;;;;;;;1.78;78.15;95792.37;1671901;85;21134;-58
2021/10/08 01:16:41;;;;;;;40.55;19.73;;;;;;;1.85;77.88;95791.09;1671887;85;21014;-59
2021/10/08 01:19:07;;;;;;;33.90;19.20;;;;;;;1.89;77.61;95791.92;1658665;85;21074;-59
2021/10/08 01:21:35;;;;;;;44.90;20.55;;;;;;;1.88;77.30;95801.22;1647297;86;21462;-59
2021/10/08 01:24:03;;;;;;;46.53;21.42;;;;;;;1.88;77.06;95805.28;1627796;86;21077;-59
2021/10/08 01:26:30;;;;;;;47.65;22.27;;;;;;;1.87;77.10;95801.01;1644577;86;21126;-58
2021/10/08 01:28:58;;;;;;;60.90;24.57;;;;;;;1.88;76.85;95804.73;1648476;86;22483;-58
2021/10/08 01:31:26;;;;;;;56.55;24.43;;;;;;;1.88;76.80;95801.22;1646723;85;21869;-57
2021/10/08 01:33:57;;;;;;;59.70;23.60;;;;;;;1.87;76.64;95801.01;1648858;86;21071;-58
2021/10/08 01:36:25;;;;;;;59.80;25.02;;;;;;;1.86;76.72;95798.89;1648507;87;21483;-59
2021/10/08 01:38:54;;;;;;;55.43;24.07;;;;;;;1.79;76.91;95798.00;1617572;87;21185;-59
2021/10/08 01:41:21;;;;;;;45.88;22.05;;;;;;;1.71;77.10;95803.09;1587652;89;21119;-59
2021/10/08 01:43:50;;;;;;;69.75;26.75;;;;;;;1.63;77.32;95806.86;1624012;86;20970;-59
2021/10/08 01:46:17;;;;;;;52.78;25.52;;;;;;;1.56;77.65;95799.19;1648232;87;20986;-58
2021/10/08 01:48:45;;;;;;;46.20;21.95;;;;;;;1.54;77.82;95804.95;1648870;86;20963;-58
2021/10/08 01:51:12;;;;;;;50.70;22.65;;;;;;;1.55;78.03;95811.17;1647354;86;21168;-60
2021/10/08 01:53:41;;;;;;;53.33;22.20;;;;;;;1.55;78.12;95805.75;1618092;87;21143;-58
2021/10/08 01:56:08;;;;;;;74.25;28.02;;;;;;;1.57;77.89;95812.39;1589835;89;21036;-58
2021/10/08 01:58:39;;;;;;;53.55;22.32;;;;;;;1.55;77.74;95810.63;1585181;89;21075;-58
2021/10/08 02:01:06;;;;;;;48.05;20.57;;;;;;;1.55;77.46;95815.25;1588472;89;21158;-58
2021/10/08 02:03:34;;;;;;;34.03;20.17;;;;;;;1.53;77.23;95816.19;1586819;89;21177;-58
2021/10/08 02:06:01;;;;;;;46.28;19.52;;;;;;;1.51;77.29;95819.25;1596594;89;21089;-57
2021/10/08 02:08:30;;;;;;;48.35;21.87;;;;;;;1.55;77.20;95814.69;1588045;89;21632;-58
2021/10/08 02:10:58;;;;;;;55.80;24.57;;;;;;;1.58;77.04;95816.66;1589910;89;20990;-59
2021/10/08 02:13:26;;;;;;;59.03;25.25;;;;;;;1.60;76.84;95823.06;1588918;89;21100;-58
2021/10/08 02:15:52;;;;;;;73.57;31.20;;;;;;;1.58;76.79;95831.58;1591673;89;21115;-58
2021/10/08 02:18:19;;;;;;;83.92;33.13;;;;;;;1.52;76.85;95831.66;1595081;88;21000;-58
2021/10/08 02:20:46;;;;;;;66.05;27.98;;;;;;;1.45;76.89;95838.89;1604606;89;21067;-58
2021/10/08 02:23:13;;;;;;;66.45;27.37;;;;;;;1.35;77.03;95829.44;1600004;89;21059;-58
2021/10/08 02:25:41;;;;;;;65.83;27.77;;;;;;;1.27;77.18;95833.18;1602411;88;21082;-59
2021/10/08 02:28:08;;;;;;;49.95;23.15;;;;;;;1.21;77.37;95834.64;1602468;89;21206;-58
2021/10/08 02:30:36;;;;;;;69.80;26.52;;;;;;;1.14;77.54;95836.44;1644499;87;20987;-59
2021/10/08 02:33:03;;;;;;;54.35;25.05;;;;;;;1.04;77.51;95836.46;1644458;86;21067;-59
2021/10/08 02:35:31;;;;;;;54.15;24.70;;;;;;;0.95;77.79;95829.70;1648628;86;21086;-58
2021/10/08 02:37:58;;;;;;;54.83;23.07;;;;;;;0.89;78.09;95830.56;1651173;86;21033;-58
2021/10/08 02:40:24;;;;;;;55.00;23.80;;;;;;;0.88;78.34;95833.63;1648102;87;21126;-58
2021/10/08 02:42:52;;;;;;;73.22;27.70;;;;;;;0.86;78.40;95842.13;1648010;85;21478;-58
2021/10/08 02:45:20;;;;;;;50.88;26.23;;;;;;;0.85;78.53;95839.76;1648680;86;21073;-58
2021/10/08 02:47:47;;;;;;;48.78;22.77;;;;;;;0.88;78.64;95845.25;1646454;85;21443;-58
2021/10/08 02:50:14;;;;;;;49.08;24.65;;;;;;;0.91;78.66;95841.82;1646387;86;20975;-57
2021/10/08 02:52:42;;;;;;;51.92;22.35;;;;;;;0.95;78.53;95846.73;1647647;86;21142;-58
2021/10/08 02:55:10;;;;;;;49.40;21.80;;;;;;;0.97;78.33;95845.80;1649351;86;21078;-59
2021/10/08 02:57:38;;;;;;;42.25;22.95;;;;;;;1.01;78.46;95846.66;1645194;86;20963;-58
2021/10/08 03:00:10;;;;;;;54.90;24.32;;;;;;;1.05;78.33;95848.86;1624764;86;21073;-59
2021/10/08 03:02:37;;;;;;;47.62;23.32;;;;;;;1.06;78.33;95849.07;1641612;86;21129;-59
2021/10/08 03:05:05;;;;;;;48.92;22.17;;;;;;;1.04;78.10;95843.23;1647053;87;21058;-58
2021/10/08 03:07:32;;;;;;;46.73;22.55;;;;;;;1.01;78.19;95852.08;1646037;85;21442;-57
2021/10/08 03:09:59;;;;;;;50.80;22.80;;;;;;;1.01;78.23;95849.38;1650352;86;20978;-59
2021/10/08 03:12:26;;;;;;;50.85;24.23;;;;;;;0.99;78.06;95852.22;1649676;86;20999;-58
2021/10/08 03:14:53;;;;;;;57.08;24.18;;;;;;;1.01;78.14;95854.79;1649551;86;21076;-58
2021/10/08 03:17:20;;;;;;;40.12;22.20;;;;;;;1.07;77.83;95860.12;1646543;85;21088;-58
2021/10/08 03:19:47;;;;;;;50.88;23.70;;;;;;;1.10;77.78;95857.27;1647385;86;20970;-58
2021/10/08 03:22:14;;;;;;;46.10;22.15;;;;;;;1.13;77.77;95861.97;1645276;85;21081;-58
2021/10/08 03:24:41;;;;;;;49.98;22.75;;;;;;;1.17;77.47;95860.87;1651791;86;21097;-58
2021/10/08 03:27:10;;;;;;;50.63;23.60;;;;;;;1.17;77.14;95866.88;1650449;87;20963;-59
2021/10/08 03:29:37;;;;;;;45.45;22.98;;;;;;;1.17;77.03;95868.23;1651752;86;21141;-59
2021/10/08 03:32:06;;;;;;;48.25;23.87;;;;;;;1.17;77.11;95864.93;1647887;86;21613;-58
2021/10/08 03:34:34;;;;;;;47.15;25.45;;;;;;;1.14;77.15;95863.53;1650160;85;21085;-59
2021/10/08 03:37:04;;;;;;;44.18;24.45;;;;;;;1.11;77.30;95859.61;1649760;86;20974;-58
2021/10/08 03:39:33;;;;;;;51.77;27.17;;;;;;;1.10;77.65;95862.11;1649474;85;20982;-58
2021/10/08 03:41:58;;;;;;;52.62;25.57;;;;;;;1.18;77.79;95871.15;1650958;86;21080;-58
2021/10/08 03:44:34;;;;;;;41.28;23.42;;;;;;;1.20;77.57;95875.08;1649981;86;21005;-58
2021/10/08 03:46:58;;;;;;;56.15;24.45;;;;;;;1.16;77.21;95866.08;1648919;85;20999;-59
2021/10/08 03:49:26;;;;;;;58.85;25.72;;;;;;;1.09;77.17;95871.38;1647803;86;21538;-59
2021/10/08 03:51:53;;;;;;;53.83;26.00;;;;;;;1.05;77.52;95874.59;1650686;86;21025;-59
2021/10/08 03:54:21;;;;;;;55.83;25.02;;;;;;;1.06;77.50;95874.81;1648540;85;21066;-59
2021/10/08 03:56:49;;;;;;;61.88;26.33;;;;;;;1.03;77.38;95870.11;1650833;86;20955;-59
2021/10/08 03:59:16;;;;;;;60.00;26.82;;;;;;;0.98;77.26;95869.61;1632778;87;21118;-59
2021/10/08 04:01:43;;;;;;;52.25;26.42;;;;;;;0.93;77.25;95874.75;1631628;87;21525;-58
2021/10/08 04:04:12;;;;;;;64.65;27.02;;;;;;;0.87;77.36;95876.19;1648407;87;21470;-59
2021/10/08 04:06:41;;;;;;;40.50;23.00;;;;;;;0.81;77.36;95874.89;1646592;87;21172;-58
2021/10/08 04:09:09;;;;;;;48.42;22.40;;;;;;;0.71;77.37;95883.61;1651965;86;20959;-58
2021/10/08 04:11:38;;;;;;;46.37;20.10;;;;;;;0.63;77.68;95877.81;1649507;86;21597;-58
2021/10/08 04:14:05;;;;;;;55.12;22.15;;;;;;;0.59;77.80;95879.67;1648476;86;21554;-60
2021/10/08 04:16:33;;;;;;;52.70;23.45;;;;;;;0.60;78.23;95881.83;1647153;86;21049;-60
2021/10/08 04:19:01;;;;;;;49.75;23.95;;;;;;;0.67;78.25;95884.11;1648616;87;21732;-59
2021/10/08 04:21:28;;;;;;;63.50;27.40;;;;;;;0.75;78.30;95875.56;1644731;86;21058;-59
2021/10/08 04:23:57;;;;;;;58.80;26.12;;;;;;;0.81;78.48;95885.72;1646120;87;21483;-61
2021/10/08 04:26:24;;;;;;;53.20;26.40;;;;;;;0.93;78.51;95886.94;1650475;86;21017;-59
2021/10/08 04:28:51;;;;;;;58.87;26.10;;;;;;;1.04;78.48;95887.94;1649683;86;21049;-59
2021/10/08 04:31:19;;;;;;;46.83;23.12;;;;;;;1.17;78.14;95894.73;1650338;86;23147;-59
2021/10/08 04:33:45;;;;;;;67.42;26.90;;;;;;;1.22;77.94;95897.17;1647841;86;20998;-60
2021/10/08 04:36:12;;;;;;;59.42;26.25;;;;;;;1.24;78.15;95892.17;1650358;87;21018;-58
2021/10/08 04:38:39;;;;;;;57.45;24.72;;;;;;;1.35;78.46;95889.06;1649286;86;20963;-59
2021/10/08 04:41:08;;;;;;;67.35;28.57;;;;;;;1.49;78.24;95898.05;1649928;86;21003;-58
2021/10/08 04:43:36;;;;;;;61.00;26.12;;;;;;;1.59;77.96;95903.65;1646329;87;21912;-59
2021/10/08 04:46:03;;;;;;;72.47;28.07;;;;;;;1.66;78.03;95899.69;1651794;86;21537;-60
2021/10/08 04:48:30;;;;;;;58.78;26.45;;;;;;;1.81;78.11;95902.26;1647396;87;21037;-58
2021/10/08 04:50:57;;;;;;;72.82;29.75;;;;;;;1.95;77.44;95905.80;1646775;86;21034;-58
2021/10/08 04:53:24;;;;;;;65.65;32.78;;;;;;;1.95;77.32;95903.85;1646631;87;21026;-59
2021/10/08 04:55:53;;;;;;;56.50;27.20;;;;;;;2.01;77.28;95908.41;1645874;85;21099;-59
2021/10/08 04:58:20;;;;;;;44.70;23.47;;;;;;;2.11;77.11;95907.20;1651291;86;20999;-59
2021/10/08 05:00:48;;;;;;;43.05;21.68;;;;;;;2.23;77.11;95910.28;1647961;85;20966;-60
2021/10/08 05:03:17;;;;;;;45.75;23.02;;;;;;;2.30;76.79;95915.84;1648665;86;21029;-59
2021/10/08 05:05:51;;;;;;;44.10;23.30;;;;;;;2.31;76.46;95920.89;1650301;86;21042;-60
2021/10/08 05:08:21;;;;;;;74.10;29.85;;;;;;;2.33;76.58;95915.87;1613071;88;21148;-59
2021/10/08 05:10:50;;;;;;;67.62;31.23;;;;;;;2.33;76.25;95921.89;1613248;87;21460;-60
2021/10/08 05:13:19;;;;;;;65.42;33.33;;;;;;;2.29;76.13;95921.06;1592536;89;20999;-59
2021/10/08 05:15:46;;;;;;;85.35;38.95;;;;;;;2.25;75.72;95916.13;1621455;87;21482;-59
2021/10/08 05:18:13;;;;;;;58.23;29.25;;;;;;;2.12;75.66;95924.29;1620298;88;21565;-60
2021/10/08 05:20:40;;;;;;;71.50;33.55;;;;;;;2.02;75.92;95926.25;1609456;88;21156;-60
2021/10/08 05:23:07;;;;;;;54.18;27.82;;;;;;;1.91;75.92;95923.92;1615245;87;21129;-61
2021/10/08 05:25:34;;;;;;;71.45;31.48;;;;;;;1.80;76.41;95933.84;1618411;87;21076;-60
2021/10/08 05:28:01;;;;;;;59.10;30.45;;;;;;;1.77;76.86;95925.08;1603097;87;21561;-60
2021/10/08 05:30:28;;;;;;;61.70;30.57;;;;;;;1.80;77.02;95932.48;1578261;89;21571;-61
2021/10/08 05:32:55;;;;;;;64.15;29.50;;;;;;;1.82;77.21;95937.77;1591799;88;21150;-64
2021/10/08 05:35:22;;;;;;;60.43;27.22;;;;;;;1.82;77.17;95942.39;1586443;88;21629;-62
2021/10/08 05:37:49;;;;;;;57.27;26.62;;;;;;;1.93;77.45;95947.44;1588405;88;21107;-61
2021/10/08 05:40:16;;;;;;;67.40;30.43;;;;;;;2.00;77.14;95945.59;1573647;89;21073;-61
2021/10/08 05:42:43;;;;;;;56.35;27.73;;;;;;;2.02;77.13;95942.53;1571400;89;21683;-61
2021/10/08 05:45:11;;;;;;;59.33;26.07;;;;;;;2.07;77.04;95942.22;1594916;89;21163;-59
2021/10/08 05:47:38;;;;;;;49.75;23.02;;;;;;;2.22;77.30;95945.36;1613765;86;21058;-61
2021/10/08 05:50:06;;;;;;;50.90;24.60;;;;;;;2.33;76.62;95940.30;1599314;87;21134;-63
2021/10/08 05:52:34;;;;;;;41.88;21.07;;;;;;;2.34;76.47;95938.39;1623841;85;21144;-62
2021/10/08 05:55:01;;;;;;;62.62;27.02;;;;;;;2.32;76.16;95943.41;1630819;85;21120;-63
2021/10/08 05:57:28;;;;;;;57.53;26.17;;;;;;;2.33;76.49;95943.61;1639812;85;21312;-61
2021/10/08 05:59:57;;;;;;;61.68;26.77;;;;;;;2.40;76.24;95941.78;1644850;85;21037;-61
2021/10/08 06:02:24;;;;;;;56.48;30.77;;;;;;;2.47;76.35;95943.83;1639846;85;21093;-61
2021/10/08 06:04:51;;;;;;;68.97;31.20;;;;;;;2.57;76.17;95948.61;1641244;85;21025;-64
2021/10/08 06:07:18;;;;;;;56.73;25.92;;;;;;;2.66;76.14;95946.42;1638939;85;21097;-60
2021/10/08 06:09:46;;;;;;;75.00;29.25;;;;;;;2.77;75.78;95952.20;1632198;85;21289;-59
2021/10/08 06:12:14;;;;;;;56.92;28.05;;;;;;;2.87;75.84;95948.83;1643725;85;21028;-62
2021/10/08 06:14:42;;;;;;;66.35;34.67;;;;;;;3.04;75.44;95951.58;1623582;85;21123;-60
2021/10/08 06:17:09;;;;;;;57.33;24.92;;;;;;;3.14;75.07;95950.91;1644745;85;21960;-61
2021/10/08 06:19:36;;;;;;;46.20;23.52;;;;;;;3.23;74.90;95953.55;1627813;85;21143;-60
2021/10/08 06:22:03;;;;;;;51.05;26.97;;;;;;;3.24;74.66;95954.35;1646285;85;21125;-60
2021/10/08 06:24:30;;;;;;;57.50;24.40;;;;;;;3.27;74.47;95957.68;1650032;84;20971;-60
2021/10/08 06:26:57;;;;;;;45.70;23.02;;;;;;;3.30;74.64;95956.38;1645824;84;21232;-57
2021/10/08 06:29:25;;;;;;;54.90;28.95;;;;;;;3.37;74.61;95953.72;1639697;84;21481;-60
2021/10/08 06:31:52;;;;;;;53.33;27.05;;;;;;;3.44;74.49;95957.10;1642084;85;21523;-64
2021/10/08 06:34:19;;;;;;;51.58;28.80;;;;;;;3.54;74.51;95951.19;1607499;86;21154;-59
2021/10/08 06:36:46;;;;;;;48.55;25.02;;;;;;;3.61;74.16;95949.91;1639166;85;21528;-58
2021/10/08 06:39:13;;;;;;;43.40;23.77;;;;;;;3.68;74.26;95952.70;1648127;85;21168;-60
2021/10/08 06:41:40;;;;;;;55.70;32.17;;;;;;;3.74;73.90;95964.83;1663952;85;21047;-59
2021/10/08 06:44:10;;;;;;;58.87;30.27;;;;;;;3.74;73.75;95955.30;1634583;85;21343;-57
2021/10/08 06:46:38;;;;;;;51.20;31.23;;;;;;;3.77;73.90;95951.03;1642076;85;21181;-58
2021/10/08 06:49:05;;;;;;;50.30;27.30;;;;;;;3.83;73.62;95948.96;1622752;85;21057;-65
2021/10/08 06:51:32;;;;;;;52.35;26.70;;;;;;;3.93;73.73;95950.22;1650194;85;21117;-58
2021/10/08 06:53:59;;;;;;;55.20;29.90;;;;;;;4.06;73.55;95961.80;1645942;84;21066;-61
2021/10/08 06:56:29;;;;;;;53.35;30.68;;;;;;;4.13;73.44;95951.56;1648688;85;21577;-61
2021/10/08 06:58:59;;;;;;;44.73;27.37;;;;;;;4.25;73.09;95962.94;1634044;85;22435;-62
2021/10/08 07:01:26;;;;;;;50.95;27.98;;;;;;;4.38;72.72;95957.41;1639186;85;21532;-59
2021/10/08 07:03:53;;;;;;;57.75;29.25;;;;;;;4.43;72.45;95957.05;1634572;85;21478;-59
2021/10/08 07:06:20;;;;;;;45.15;26.70;;;;;;;4.45;72.32;95959.41;1638856;84;21533;-61
2021/10/08 07:08:49;;;;;;;44.05;23.55;;;;;;;4.50;72.22;95959.84;1638926;85;21029;-60
2021/10/08 07:11:17;;;;;;;48.08;27.80;;;;;;;4.58;72.29;95952.50;1642341;85;21816;-57
2021/10/08 07:13:44;;;;;;;44.23;22.65;;;;;;;4.67;71.97;95958.38;1637031;85;21089;-59
2021/10/08 07:16:11;;;;;;;50.83;28.38;;;;;;;4.76;71.83;95961.57;1651343;85;21125;-60
2021/10/08 07:18:38;;;;;;;46.48;26.20;;;;;;;4.82;71.84;95957.31;1628491;86;21089;-58
2021/10/08 07:21:06;;;;;;;49.00;26.93;;;;;;;4.95;72.01;95951.16;1643687;86;21041;-60
2021/10/08 07:23:34;;;;;;;43.65;23.67;;;;;;;5.11;71.64;95957.08;1640593;85;21919;-59
2021/10/08 07:26:01;;;;;;;45.38;21.75;;;;;;;5.22;71.44;95953.03;1642565;85;21653;-59
2021/10/08 07:28:28;;;;;;;28.67;17.92;;;;;;;5.39;71.42;95950.39;1647699;86;20987;-60
2021/10/08 07:30:54;;;;;;;37.95;19.25;;;;;;;5.58;70.93;95949.47;1644115;86;21069;-60
2021/10/08 07:33:21;;;;;;;39.78;18.40;;;;;;;5.71;70.06;95947.95;1641540;86;21098;-57
2021/10/08 07:35:48;;;;;;;27.25;15.75;;;;;;;5.84;69.83;95957.38;1644494;86;21152;-59
2021/10/08 07:38:15;;;;;;;37.95;19.10;;;;;;;6.01;69.36;95952.50;1631979;86;21054;-60
2021/10/08 07:40:41;;;;;;;31.68;18.00;;;;;;;6.20;69.06;95945.33;1633469;85;21129;-59
2021/10/08 07:43:08;;;;;;;31.52;16.42;;;;;;;6.45;68.56;95945.30;1645042;87;20998;-60
2021/10/08 07:45:35;;;;;;;32.90;18.37;;;;;;;6.67;67.82;95944.14;1633398;85;21081;-58
2021/10/08 07:48:02;;;;;;;32.95;19.80;;;;;;;6.84;67.66;95944.67;1637639;84;21114;-55
2021/10/08 07:50:30;;;;;;;35.78;18.37;;;;;;;7.07;67.25;95938.19;1640841;86;20982;-56
2021/10/08 07:52:57;;;;;;;32.78;18.55;;;;;;;7.24;67.02;95938.91;1644567;87;21137;-59
2021/10/08 07:55:24;;;;;;;31.57;17.82;;;;;;;7.39;66.50;95933.58;1645222;86;21489;-65
2021/10/08 07:57:51;;;;;;;28.52;16.77;;;;;;;7.46;66.51;95928.63;1642732;85;21045;-57
2021/10/08 08:00:18;;;;;;;32.73;18.25;;;;;;;7.55;65.98;95938.58;1619749;86;21129;-55
2021/10/08 08:02:45;;;;;;;30.68;18.42;;;;;;;7.67;65.95;95937.53;1643054;86;21029;-60
2021/10/08 08:05:12;;;;;;;34.53;17.70;;;;;;;7.77;65.76;95928.49;1645202;85;21097;-59
2021/10/08 08:07:39;;;;;;;32.78;16.52;;;;;;;7.92;65.12;95923.70;1618896;85;21653;-57
2021/10/08 08:10:09;;;;;;;30.82;15.75;;;;;;;8.11;64.48;95921.20;1645524;85;20990;-59
2021/10/08 08:12:36;;;;;;;30.72;15.35;;;;;;;8.32;63.35;95917.56;1646869;87;21086;-58
2021/10/08 08:15:06;;;;;;;36.80;14.05;;;;;;;8.50;62.69;95921.73;1626621;86;21912;-58
2021/10/08 08:17:34;;;;;;;22.93;12.78;;;;;;;8.74;61.58;95914.44;1633029;86;21037;-61
2021/10/08 08:20:01;;;;;;;32.55;16.73;;;;;;;8.96;60.00;95913.25;1640868;85;21598;-59
2021/10/08 08:22:28;;;;;;;24.72;14.95;;;;;;;9.11;58.08;95910.51;1648857;86;20979;-56
2021/10/08 08:24:55;;;;;;;24.47;15.32;;;;;;;9.22;56.85;95904.92;1645577;85;21088;-60
2021/10/08 08:27:22;;;;;;;24.50;13.75;;;;;;;9.32;56.82;95913.61;1644868;86;21074;-59
2021/10/08 08:29:48;;;;;;;24.87;11.25;;;;;;;9.40;55.53;95915.87;1633641;85;21511;-62
2021/10/08 08:32:15;;;;;;;24.30;11.57;;;;;;;9.54;51.38;95909.41;1631215;85;21171;-58
2021/10/08 08:34:43;;;;;;;31.00;12.40;;;;;;;9.68;49.72;95903.73;1640664;85;21089;-60
2021/10/08 08:37:10;;;;;;;33.67;12.30;;;;;;;9.82;48.53;95907.67;1633192;86;21156;-58
2021/10/08 08:39:39;;;;;;;24.20;9.98;;;;;;;9.95;48.46;95907.30;1635041;87;21023;-59
2021/10/08 08:42:05;;;;;;;32.75;10.82;;;;;;;10.13;47.26;95903.11;1636367;87;21049;-60
2021/10/08 08:44:32;;;;;;;22.22;9.70;;;;;;;10.32;45.68;95904.41;1648413;86;21129;-61
2021/10/08 08:46:59;;;;;;;16.42;8.33;;;;;;;10.44;44.65;95905.18;1640864;85;21077;-59
2021/10/08 08:49:26;;;;;;;17.32;9.15;;;;;;;10.54;42.76;95907.75;1644246;85;21585;-59
2021/10/08 08:51:52;;;;;;;18.00;8.83;;;;;;;10.62;42.30;95901.53;1644102;86;21034;-58
2021/10/08 08:54:20;;;;;;;21.42;9.50;;;;;;;10.71;42.27;95900.41;1644654;86;21618;-62
2021/10/08 08:56:48;;;;;;;21.93;9.00;;;;;;;10.86;41.33;95895.59;1630801;86;21079;-61
2021/10/08 08:59:15;;;;;;;15.58;8.33;;;;;;;10.97;40.83;95889.31;1627750;87;21045;-58
2021/10/08 09:02:02;;;;;;;29.32;10.80;;;;;;;11.07;39.96;95895.99;1641023;85;21120;-60
2021/10/08 09:04:32;;;;;;;21.17;9.30;;;;;;;11.10;39.77;95895.15;1622732;85;21102;-60
2021/10/08 09:06:59;;;;;;;23.90;9.80;;;;;;;11.16;39.11;95892.69;1635460;85;21023;-61
2021/10/08 09:09:26;;;;;;;19.48;9.28;;;;;;;11.27;39.40;95887.14;1657796;85;21586;-58
2021/10/08 09:11:55;;;;;;;21.70;7.83;;;;;;;11.45;38.66;95886.19;1644435;85;21545;-61
2021/10/08 09:14:32;;;;;;;30.52;8.33;;;;;;;11.60;37.82;95882.55;1634689;85;21151;-59
2021/10/08 09:17:18;;;;;;;26.82;8.95;;;;;;;11.73;38.24;95875.95;1628419;85;21039;-59
2021/10/08 09:19:51;;;;;;;22.65;9.55;;;;;;;11.88;37.65;95881.96;1630998;87;21149;-59
2021/10/08 09:22:22;;;;;;;17.15;7.72;;;;;;;12.06;36.74;95863.79;1644874;85;21102;-60
2021/10/08 09:24:49;;;;;;;19.87;8.03;;;;;;;12.22;36.82;95873.47;1645434;85;21200;-59
2021/10/08 09:27:19;;;;;;;18.48;7.03;;;;;;;12.29;36.29;95864.25;1644336;87;21183;-57
2021/10/08 09:29:53;;;;;;;19.48;8.60;;;;;;;12.36;36.59;95873.13;1648195;87;21092;-58
2021/10/08 09:32:21;;;;;;;27.93;8.00;;;;;;;12.48;35.36;95862.77;1644902;85;21062;-59
2021/10/08 09:34:49;;;;;;;22.87;7.92;;;;;;;12.67;36.34;95873.72;1630268;85;21586;-62
2021/10/08 09:37:17;;;;;;;20.32;7.67;;;;;;;13.04;35.82;95862.73;1614850;86;22101;-60
2021/10/08 09:39:47;;;;;;;17.65;7.00;;;;;;;13.51;34.82;95869.30;1621330;87;21979;-59
2021/10/08 09:42:14;;;;;;;22.25;7.17;;;;;;;13.97;34.42;95863.19;1627903;86;21029;-59
2021/10/08 09:44:47;;;;;;;36.15;7.95;;;;;;;14.26;33.48;95855.58;1617813;88;21030;-58
2021/10/08 09:47:21;;;;;;;30.20;8.30;;;;;;;14.64;33.24;95866.78;1633977;86;21072;-58
2021/10/08 09:49:50;;;;;;;23.15;7.95;;;;;;;15.05;31.67;95853.48;1635260;86;22393;-58
2021/10/08 09:52:28;;;;;;;40.65;8.20;;;;;;;15.50;30.65;95851.69;1623342;87;21195;-58
2021/10/08 09:55:00;;;;;;;14.73;6.83;;;;;;;15.87;30.36;95842.39;1620487;87;21117;-60
2021/10/08 09:57:27;;;;;;;23.18;6.67;;;;;;;16.27;30.05;95839.02;1642295;86;21037;-60
2021/10/08 09:59:55;;;;;;;22.93;6.72;;;;;;;16.47;29.38;95829.07;1643967;86;21200;-62
2021/10/08 10:02:22;;;;;;;14.00;6.08;;;;;;;16.58;28.62;95842.68;1645927;85;21111;-61
2021/10/08 10:04:55;;;;;;;18.92;6.72;;;;;;;16.79;28.62;95837.66;1640977;85;21085;-61
2021/10/08 10:07:23;;;;;;;19.52;7.87;;;;;;;17.27;27.56;95834.60;1643667;86;21006;-61
2021/10/08 10:09:50;;;;;;;19.55;6.60;;;;;;;17.61;27.20;95832.91;1629317;86;21053;-58
2021/10/08 10:12:20;;;;;;;17.37;7.28;;;;;;;17.87;27.16;95829.91;1647262;87;21072;-59
2021/10/08 10:14:49;;;;;;;20.70;6.25;;;;;;;18.13;26.47;95835.23;1629940;87;21986;-60
2021/10/08 10:17:17;;;;;;;14.83;6.55;;;;;;;18.31;26.24;95832.55;1646594;87;22212;-59
2021/10/08 10:19:46;;;;;;;16.55;7.20;;;;;;;18.60;26.10;95831.34;1643734;85;21427;-60
2021/10/08 10:22:18;;;;;;;15.10;7.20;;;;;;;18.88;26.09;95834.13;1647513;86;21021;-61
2021/10/08 10:24:46;;;;;;;17.82;6.50;;;;;;;19.18;25.14;95820.45;1645707;86;21043;-58
2021/10/08 10:27:16;;;;;;;15.98;7.03;;;;;;;19.44;25.11;95827.08;1645429;86;21094;-59
2021/10/08 10:29:45;;;;;;;18.80;6.50;;;;;;;19.48;24.01;95819.28;1641557;86;21784;-59
2021/10/08 10:32:12;;;;;;;18.73;6.83;;;;;;;19.54;24.32;95819.39;1664571;85;21034;-59
2021/10/08 10:34:39;;;;;;;19.55;6.30;;;;;;;19.81;24.64;95815.70;1659988;85;21010;-61
2021/10/08 10:37:08;;;;;;;16.23;6.12;;;;;;;20.11;23.86;95816.50;1667515;85;21062;-60
2021/10/08 10:39:36;;;;;;;12.35;6.03;;;;;;;20.32;23.69;95814.05;1640557;85;21077;-59
2021/10/08 10:42:14;;;;;;;21.40;6.97;;;;;;;20.66;23.71;95815.31;1645353;85;21807;-60
2021/10/08 10:44:40;;;;;;;23.57;7.65;;;;;;;20.91;22.69;95810.50;1631410;86;21026;-58
2021/10/08 10:47:29;;;;;;;27.48;8.03;;;;;;;21.13;22.99;95808.73;1641108;85;21050;-64
2021/10/08 10:50:38;;;;;;;25.37;8.33;;;;;;;21.24;21.73;95809.50;1646358;86;21060;-59
2021/10/08 10:52:59;;;;;;;23.65;6.87;;;;;;;21.32;22.90;95810.63;1646918;86;21030;-60
2021/10/08 10:55:28;;;;;;;14.13;5.78;;;;;;;21.63;22.61;95808.72;1654109;85;21090;-60
2021/10/08 10:57:57;;;;;;;19.10;7.30;;;;;;;21.81;22.28;95811.20;1636913;86;21026;-60
2021/10/08 11:00:41;;;;;;;22.20;7.87;;;;;;;21.83;21.98;95805.87;1635756;86;21827;-59
2021/10/08 11:03:19;;;;;;;19.20;7.37;;;;;;;21.70;21.22;95809.70;1633254;86;21022;-60
2021/10/08 11:06:07;;;;;;;21.42;6.97;;;;;;;21.59;22.37;95811.56;1633151;85;21099;-61
2021/10/08 11:08:39;;;;;;;15.60;6.87;;;;;;;21.41;21.27;95804.25;1640372;86;21533;-58
2021/10/08 11:11:14;;;;;;;20.02;6.83;;;;;;;21.09;21.54;95807.43;1644779;85;21074;-60
2021/10/08 11:13:41;;;;;;;15.63;7.25;;;;;;;21.08;21.94;95800.30;1638954;87;21150;-59
2021/10/08 11:16:10;;;;;;;21.37;7.62;;;;;;;21.39;21.51;95809.58;1626270;86;21042;-60
2021/10/08 11:18:47;;;;;;;20.23;6.60;;;;;;;21.64;21.49;95807.45;1630814;86;21066;-61
2021/10/08 11:21:32;;;;;;;18.35;7.10;;;;;;;21.65;21.43;95816.64;1642586;85;21060;-60
2021/10/08 11:24:14;;;;;;;20.52;6.55;;;;;;;21.73;21.65;95807.31;1635990;87;21206;-59
2021/10/08 11:26:41;;;;;;;21.73;7.17;;;;;;;21.86;21.25;95809.73;1641486;86;21645;-61
2021/10/08 11:29:08;;;;;;;20.88;6.47;;;;;;;22.26;20.90;95810.36;1642332;86;21024;-58